Great BritainFixed distance
Lakeland 50 Mile
29–30 Jul2016
Distance
50mi
Finishers
624468 men155 women
Winning time
7:38:48h
Median pace
5.77km/h
Pace distribution
624 finishers · 3.40–10.52 km/h · mean 5.95
Every finisher ran the same 50 mi course, so these paces are directly comparable.
Histogram of finisher pace. 624 finishers ranged from 3.40 to 10.52 kilometres per hour, with a mean of 5.95 and a median of 5.77. The busiest band is 5.5 to 6.0 kilometres per hour, with 105 finishers.
Results
Ranks 1–50 of 624
| Rank | Runner | Time | Pace | Cat. | Placing |
|---|---|---|---|---|---|
| 1 | Montane | 7:38:48h | 10.52 | M35 | 1st M · 1st M35 |
| 2 | Moonglu | 7:50:56h | 10.25 | M23 | 2nd M · 1st M23 |
| 3 | North Leeds Fell Runners | 8:01:02h | 10.04 | M23 | 3rd M · 2nd M23 |
| 4 | Ambleside AC | 8:02:28h | 10.01 | M23 | 4th M · 3rd M23 |
| 5 | Team Montane/Teammount... | 8:20:18h | 9.65 | M35 | 5th M · 2nd M35 |
| 6 | Helm Hill Runners | 8:33:15h | 9.41 | M45 | 6th M · 1st M45 |
| 7 | Team Montane | 8:34:36h | 9.38 | M23 | 7th M · 4th M23 |
| 8 | Kendal AAC | 8:40:24h | 9.28 | M40 | 8th M · 1st M40 |
| 9 | DH Runners | 8:42:46h | 9.24 | M35 | 9th M · 3rd M35 |
| 10 | Ambleside AC | 8:45:39h | 9.19 | M35 | 10th M · 4th M35 |
| 11 | Todmorden Harriers & AC | 8:50:41h | 9.10 | M23 | 11th M · 5th M23 |
| 12 | Wimbledon Windmilers | 8:51:22h | 9.09 | M40 | 12th M · 2nd M40 |
| 13 | the Endurance Store Tr... | 8:53:52h | 9.04 | M23 | 13th M · 6th M23 |
| 14 | Endurancelife | 8:54:39h | 9.03 | W35 | 1st F · 1st W35 |
| 15 | Dark Peak Fell Runners... | 8:59:54h | 8.94 | M40 | 14th M · 3rd M40 |
| 16 | Herne Hill Harriers | 9:03:48h | 8.88 | M35 | 15th M · 5th M35 |
| 17 | 9:04:02h | 8.88 | W35 | 2nd F · 2nd W35 | |
| 18 | 9:08:01h | 8.81 | M45 | 16th M · 2nd M45 | |
| 19 | Bristol & West AC | 9:20:56h | 8.61 | M40 | 17th M · 4th M40 |
| 20 | 9:23:18h | 8.57 | M23 | 18th M · 7th M23 | |
| 21 | Stockport Harriers & AC | 9:24:17h | 8.56 | M45 | 19th M · 3rd M45 |
| 21 | Swansea Harriers AC | 9:24:17h | 8.56 | M40 | 19th M · 5th M40 |
| 23 | 9:24:23h | 8.55 | M23 | 21st M · 8th M23 | |
| 24 | Ambleside AC | 9:26:35h | 8.52 | M35 | 22nd M · 6th M35 |
| 25 | Watford Joggers | 9:26:52h | 8.52 | W23 | 3rd F · 1st W23 |
| 26 | the Endurance Store Tr... | 9:27:17h | 8.51 | M23 | 23rd M · 9th M23 |
| 27 | 9:28:39h | 8.49 | M23 | 24th M · 10th M23 | |
| 28 | Mountain Running | 9:32:06h | 8.44 | M40 | 25th M · 6th M40 |
| 29 | Team Montane / NFR | 9:37:30h | 8.36 | M40 | 26th M · 7th M40 |
| 30 | Slinn Allstars | 9:41:27h | 8.30 | M40 | 27th M · 8th M40 |
| 31 | Thornton Cleveleys Run... | 9:41:32h | 8.30 | M40 | 28th M · 9th M40 |
| 32 | Cadence Tri | 9:41:38h | 8.30 | M45 | 29th M · 4th M45 |
| 33 | Bromsgrove & Redditch AC | 9:41:39h | 8.30 | M45 | 30th M · 5th M45 |
| 34 | Spectrum Striders RC | 9:41:56h | 8.30 | M45 | 31st M · 6th M45 |
| 35 | Spectrum Striders RC | 9:41:57h | 8.30 | M23 | 32nd M · 11th M23 |
| 36 | 9:43:10h | 8.28 | M35 | 33rd M · 7th M35 | |
| 37 | 9:48:09h | 8.21 | M23 | 34th M · 12th M23 | |
| 38 | Eryri Harriers | 9:48:29h | 8.20 | W23 | 4th F · 2nd W23 |
| 39 | Warrington RRC | 9:48:33h | 8.20 | M45 | 35th M · 7th M45 |
| 40 | Border Reiver Runners | 9:48:42h | 8.20 | M40 | 36th M · 10th M40 |
| 41 | 9:48:53h | 8.20 | M35 | 37th M · 8th M35 | |
| 42 | 9:48:54h | 8.20 | M40 | 38th M · 11th M40 | |
| 43 | Warrington RRC | 9:49:06h | 8.20 | M50 | 39th M · 1st M50 |
| 44 | Coniston Fell Runners | 9:51:44h | 8.16 | M50 | 40th M · 2nd M50 |
| 45 | 9:53:22h | 8.14 | M45 | 41st M · 8th M45 | |
| 46 | Ripon Runners | 9:57:19h | 8.08 | M60 | 42nd M · 1st M60 |
| 47 | 9:57:58h | 8.07 | M40 | 43rd M · 12th M40 | |
| 48 | 9:58:05h | 8.07 | M45 | 44th M · 9th M45 | |
| 49 | 10:00:18h | 8.04 | M35 | 45th M · 9th M35 | |
| 50 | Carnethy Hill RC | 10:02:04h | 8.02 | M23 | 46th M · 13th M23 |
- 1Montane1st M · 1st M35Time7:38:48hPace10.52Cat.M35
- 2Moonglu2nd M · 1st M23Time7:50:56hPace10.25Cat.M23
- 3North Leeds Fell Runners3rd M · 2nd M23Time8:01:02hPace10.04Cat.M23
- 4Ambleside AC4th M · 3rd M23Time8:02:28hPace10.01Cat.M23
- 5Team Montane/Teammount...5th M · 2nd M35Time8:20:18hPace9.65Cat.M35
- 6Helm Hill Runners6th M · 1st M45Time8:33:15hPace9.41Cat.M45
- 7Team Montane7th M · 4th M23Time8:34:36hPace9.38Cat.M23
- 8Kendal AAC8th M · 1st M40Time8:40:24hPace9.28Cat.M40
- 9DH Runners9th M · 3rd M35Time8:42:46hPace9.24Cat.M35
- 10Ambleside AC10th M · 4th M35Time8:45:39hPace9.19Cat.M35
- 11Todmorden Harriers & AC11th M · 5th M23Time8:50:41hPace9.10Cat.M23
- 12Wimbledon Windmilers12th M · 2nd M40Time8:51:22hPace9.09Cat.M40
- 13the Endurance Store Tr...13th M · 6th M23Time8:53:52hPace9.04Cat.M23
- 14Endurancelife1st F · 1st W35Time8:54:39hPace9.03Cat.W35
- 15Dark Peak Fell Runners...14th M · 3rd M40Time8:59:54hPace8.94Cat.M40
- 16Herne Hill Harriers15th M · 5th M35Time9:03:48hPace8.88Cat.M35
- 172nd F · 2nd W35Time9:04:02hPace8.88Cat.W35
- 1816th M · 2nd M45Time9:08:01hPace8.81Cat.M45
- 19Bristol & West AC17th M · 4th M40Time9:20:56hPace8.61Cat.M40
- 2018th M · 7th M23Time9:23:18hPace8.57Cat.M23
- 21Stockport Harriers & AC19th M · 3rd M45Time9:24:17hPace8.56Cat.M45
- 21Swansea Harriers AC19th M · 5th M40Time9:24:17hPace8.56Cat.M40
- 2321st M · 8th M23Time9:24:23hPace8.55Cat.M23
- 24Ambleside AC22nd M · 6th M35Time9:26:35hPace8.52Cat.M35
- 25Watford Joggers3rd F · 1st W23Time9:26:52hPace8.52Cat.W23
- 26the Endurance Store Tr...23rd M · 9th M23Time9:27:17hPace8.51Cat.M23
- 2724th M · 10th M23Time9:28:39hPace8.49Cat.M23
- 28Mountain Running25th M · 6th M40Time9:32:06hPace8.44Cat.M40
- 29Team Montane / NFR26th M · 7th M40Time9:37:30hPace8.36Cat.M40
- 30Slinn Allstars27th M · 8th M40Time9:41:27hPace8.30Cat.M40
- 31Thornton Cleveleys Run...28th M · 9th M40Time9:41:32hPace8.30Cat.M40
- 32Cadence Tri29th M · 4th M45Time9:41:38hPace8.30Cat.M45
- 33Bromsgrove & Redditch AC30th M · 5th M45Time9:41:39hPace8.30Cat.M45
- 34Spectrum Striders RC31st M · 6th M45Time9:41:56hPace8.30Cat.M45
- 35Spectrum Striders RC32nd M · 11th M23Time9:41:57hPace8.30Cat.M23
- 3633rd M · 7th M35Time9:43:10hPace8.28Cat.M35
- 3734th M · 12th M23Time9:48:09hPace8.21Cat.M23
- 38Eryri Harriers4th F · 2nd W23Time9:48:29hPace8.20Cat.W23
- 39Warrington RRC35th M · 7th M45Time9:48:33hPace8.20Cat.M45
- 40Border Reiver Runners36th M · 10th M40Time9:48:42hPace8.20Cat.M40
- 4137th M · 8th M35Time9:48:53hPace8.20Cat.M35
- 4238th M · 11th M40Time9:48:54hPace8.20Cat.M40
- 43Warrington RRC39th M · 1st M50Time9:49:06hPace8.20Cat.M50
- 44Coniston Fell Runners40th M · 2nd M50Time9:51:44hPace8.16Cat.M50
- 4541st M · 8th M45Time9:53:22hPace8.14Cat.M45
- 46Ripon Runners42nd M · 1st M60Time9:57:19hPace8.08Cat.M60
- 4743rd M · 12th M40Time9:57:58hPace8.07Cat.M40
- 4844th M · 9th M45Time9:58:05hPace8.07Cat.M45
- 4945th M · 9th M35Time10:00:18hPace8.04Cat.M35
- 50Carnethy Hill RC46th M · 13th M23Time10:02:04hPace8.02Cat.M23
Showing ranks 1–50 of 624